sensor_id;sensor_type;location;lat;lon;timestamp;P1;durP1;ratioP1;P2;durP2;ratioP2
33138;SDS011;19501;50.948;5.316;2023-04-24T00:01:47;26.73;;;12.65;;
33138;SDS011;19501;50.948;5.316;2023-04-24T00:04:13;34.80;;;12.07;;
33138;SDS011;19501;50.948;5.316;2023-04-24T00:06:41;28.77;;;11.30;;
33138;SDS011;19501;50.948;5.316;2023-04-24T00:09:08;30.85;;;14.32;;
33138;SDS011;19501;50.948;5.316;2023-04-24T00:11:35;31.15;;;13.88;;
33138;SDS011;19501;50.948;5.316;2023-04-24T00:14:01;32.92;;;14.38;;
33138;SDS011;19501;50.948;5.316;2023-04-24T00:16:27;30.13;;;12.02;;
33138;SDS011;19501;50.948;5.316;2023-04-24T00:18:53;37.08;;;15.45;;
33138;SDS011;19501;50.948;5.316;2023-04-24T00:21:19;33.78;;;14.77;;
33138;SDS011;19501;50.948;5.316;2023-04-24T00:23:45;32.25;;;13.70;;
33138;SDS011;19501;50.948;5.316;2023-04-24T00:26:12;29.90;;;14.45;;
33138;SDS011;19501;50.948;5.316;2023-04-24T00:28:37;32.30;;;14.10;;
33138;SDS011;19501;50.948;5.316;2023-04-24T00:31:05;35.33;;;14.95;;
33138;SDS011;19501;50.948;5.316;2023-04-24T00:33:31;35.88;;;15.43;;
33138;SDS011;19501;50.948;5.316;2023-04-24T00:35:57;31.60;;;13.95;;
33138;SDS011;19501;50.948;5.316;2023-04-24T00:38:22;32.25;;;14.60;;
33138;SDS011;19501;50.948;5.316;2023-04-24T00:40:48;31.48;;;14.25;;
33138;SDS011;19501;50.948;5.316;2023-04-24T00:43:15;39.22;;;14.93;;
33138;SDS011;19501;50.948;5.316;2023-04-24T00:45:41;37.97;;;15.85;;
33138;SDS011;19501;50.948;5.316;2023-04-24T00:48:07;35.63;;;14.30;;
33138;SDS011;19501;50.948;5.316;2023-04-24T00:50:33;37.75;;;15.85;;
33138;SDS011;19501;50.948;5.316;2023-04-24T00:53:01;36.92;;;16.20;;
33138;SDS011;19501;50.948;5.316;2023-04-24T00:55:29;32.65;;;14.48;;
33138;SDS011;19501;50.948;5.316;2023-04-24T00:57:55;38.95;;;15.98;;
33138;SDS011;19501;50.948;5.316;2023-04-24T01:00:21;39.90;;;17.15;;
33138;SDS011;19501;50.948;5.316;2023-04-24T01:05:17;31.55;;;13.27;;
33138;SDS011;19501;50.948;5.316;2023-04-24T01:07:45;39.15;;;18.45;;
33138;SDS011;19501;50.948;5.316;2023-04-24T01:10:13;35.08;;;17.23;;
33138;SDS011;19501;50.948;5.316;2023-04-24T01:12:39;43.33;;;17.65;;
33138;SDS011;19501;50.948;5.316;2023-04-24T01:15:05;39.08;;;17.42;;
33138;SDS011;19501;50.948;5.316;2023-04-24T01:17:32;39.45;;;19.00;;
33138;SDS011;19501;50.948;5.316;2023-04-24T01:19:58;37.85;;;16.73;;
33138;SDS011;19501;50.948;5.316;2023-04-24T01:22:26;35.22;;;17.38;;
33138;SDS011;19501;50.948;5.316;2023-04-24T01:24:52;36.05;;;16.38;;
33138;SDS011;19501;50.948;5.316;2023-04-24T01:27:18;43.75;;;19.88;;
33138;SDS011;19501;50.948;5.316;2023-04-24T01:29:44;38.30;;;18.08;;
33138;SDS011;19501;50.948;5.316;2023-04-24T01:32:14;40.65;;;16.58;;
33138;SDS011;19501;50.948;5.316;2023-04-24T01:34:43;35.40;;;14.27;;
33138;SDS011;19501;50.948;5.316;2023-04-24T01:37:10;41.03;;;17.13;;
33138;SDS011;19501;50.948;5.316;2023-04-24T01:39:35;39.70;;;18.20;;
33138;SDS011;19501;50.948;5.316;2023-04-24T01:42:01;37.60;;;15.80;;
33138;SDS011;19501;50.948;5.316;2023-04-24T01:44:27;39.60;;;17.25;;
33138;SDS011;19501;50.948;5.316;2023-04-24T01:46:54;34.03;;;15.23;;
33138;SDS011;19501;50.948;5.316;2023-04-24T01:49:20;43.03;;;19.38;;
33138;SDS011;19501;50.948;5.316;2023-04-24T01:51:46;39.08;;;18.00;;
33138;SDS011;19501;50.948;5.316;2023-04-24T01:54:12;30.75;;;14.45;;
33138;SDS011;19501;50.948;5.316;2023-04-24T01:56:41;37.83;;;17.30;;
33138;SDS011;19501;50.948;5.316;2023-04-24T01:59:09;33.38;;;16.90;;
33138;SDS011;19501;50.948;5.316;2023-04-24T02:01:36;31.38;;;14.45;;
33138;SDS011;19501;50.948;5.316;2023-04-24T02:04:03;38.92;;;14.90;;
33138;SDS011;19501;50.948;5.316;2023-04-24T02:06:32;34.42;;;13.77;;
33138;SDS011;19501;50.948;5.316;2023-04-24T02:08:58;40.30;;;16.92;;
33138;SDS011;19501;50.948;5.316;2023-04-24T02:11:24;39.05;;;18.98;;
33138;SDS011;19501;50.948;5.316;2023-04-24T02:13:50;30.17;;;14.65;;
33138;SDS011;19501;50.948;5.316;2023-04-24T02:16:16;34.75;;;17.52;;
33138;SDS011;19501;50.948;5.316;2023-04-24T02:18:42;36.00;;;14.57;;
33138;SDS011;19501;50.948;5.316;2023-04-24T02:21:07;37.10;;;17.75;;
33138;SDS011;19501;50.948;5.316;2023-04-24T02:23:33;36.28;;;15.48;;
33138;SDS011;19501;50.948;5.316;2023-04-24T02:25:59;38.35;;;15.93;;
33138;SDS011;19501;50.948;5.316;2023-04-24T02:28:24;36.72;;;18.88;;
33138;SDS011;19501;50.948;5.316;2023-04-24T02:30:50;37.33;;;16.98;;
33138;SDS011;19501;50.948;5.316;2023-04-24T02:33:16;38.40;;;19.08;;
33138;SDS011;19501;50.948;5.316;2023-04-24T02:35:41;34.40;;;17.30;;
33138;SDS011;19501;50.948;5.316;2023-04-24T02:38:07;36.47;;;18.20;;
33138;SDS011;19501;50.948;5.316;2023-04-24T02:40:33;33.15;;;16.95;;
33138;SDS011;19501;50.948;5.316;2023-04-24T02:42:58;33.20;;;16.65;;
33138;SDS011;19501;50.948;5.316;2023-04-24T02:45:24;36.90;;;18.02;;
33138;SDS011;19501;50.948;5.316;2023-04-24T02:47:50;39.30;;;17.73;;
33138;SDS011;19501;50.948;5.316;2023-04-24T02:50:15;37.15;;;18.67;;
33138;SDS011;19501;50.948;5.316;2023-04-24T02:52:41;38.80;;;18.45;;
33138;SDS011;19501;50.948;5.316;2023-04-24T02:55:07;41.10;;;17.55;;
33138;SDS011;19501;50.948;5.316;2023-04-24T02:57:33;36.90;;;16.85;;
33138;SDS011;19501;50.948;5.316;2023-04-24T02:59:59;40.88;;;18.10;;
33138;SDS011;19501;50.948;5.316;2023-04-24T03:02:25;37.65;;;18.42;;
33138;SDS011;19501;50.948;5.316;2023-04-24T03:04:50;31.70;;;15.77;;
33138;SDS011;19501;50.948;5.316;2023-04-24T03:07:16;37.15;;;17.63;;
33138;SDS011;19501;50.948;5.316;2023-04-24T03:09:42;40.35;;;17.35;;
33138;SDS011;19501;50.948;5.316;2023-04-24T03:12:08;37.00;;;18.15;;
33138;SDS011;19501;50.948;5.316;2023-04-24T03:14:33;47.72;;;19.90;;
33138;SDS011;19501;50.948;5.316;2023-04-24T03:16:59;39.70;;;17.75;;
33138;SDS011;19501;50.948;5.316;2023-04-24T03:19:25;38.75;;;17.85;;
33138;SDS011;19501;50.948;5.316;2023-04-24T03:21:51;38.05;;;15.98;;
33138;SDS011;19501;50.948;5.316;2023-04-24T03:24:17;43.30;;;19.45;;
33138;SDS011;19501;50.948;5.316;2023-04-24T03:26:42;39.25;;;18.33;;
33138;SDS011;19501;50.948;5.316;2023-04-24T03:29:08;40.35;;;18.67;;
33138;SDS011;19501;50.948;5.316;2023-04-24T03:31:34;40.03;;;19.17;;
33138;SDS011;19501;50.948;5.316;2023-04-24T03:33:59;44.58;;;18.17;;
33138;SDS011;19501;50.948;5.316;2023-04-24T03:36:25;38.80;;;19.15;;
33138;SDS011;19501;50.948;5.316;2023-04-24T03:38:51;39.13;;;18.88;;
33138;SDS011;19501;50.948;5.316;2023-04-24T03:41:16;40.72;;;18.05;;
33138;SDS011;19501;50.948;5.316;2023-04-24T03:43:42;39.72;;;18.88;;
33138;SDS011;19501;50.948;5.316;2023-04-24T03:46:08;41.28;;;18.90;;
33138;SDS011;19501;50.948;5.316;2023-04-24T03:48:34;42.20;;;18.40;;
33138;SDS011;19501;50.948;5.316;2023-04-24T03:51:00;37.92;;;17.85;;
33138;SDS011;19501;50.948;5.316;2023-04-24T03:53:28;42.60;;;16.63;;
33138;SDS011;19501;50.948;5.316;2023-04-24T03:55:54;38.80;;;18.67;;
33138;SDS011;19501;50.948;5.316;2023-04-24T03:58:20;45.20;;;19.48;;
33138;SDS011;19501;50.948;5.316;2023-04-24T04:00:46;43.00;;;18.92;;
33138;SDS011;19501;50.948;5.316;2023-04-24T04:03:12;37.72;;;17.30;;
33138;SDS011;19501;50.948;5.316;2023-04-24T04:05:39;36.95;;;17.50;;
33138;SDS011;19501;50.948;5.316;2023-04-24T04:08:05;29.77;;;12.63;;
33138;SDS011;19501;50.948;5.316;2023-04-24T04:10:31;37.38;;;17.58;;
33138;SDS011;19501;50.948;5.316;2023-04-24T04:12:56;33.22;;;15.07;;
33138;SDS011;19501;50.948;5.316;2023-04-24T04:15:22;40.20;;;18.48;;
33138;SDS011;19501;50.948;5.316;2023-04-24T04:17:48;36.42;;;16.23;;
33138;SDS011;19501;50.948;5.316;2023-04-24T04:20:13;35.92;;;16.98;;
33138;SDS011;19501;50.948;5.316;2023-04-24T04:22:39;38.47;;;16.58;;
33138;SDS011;19501;50.948;5.316;2023-04-24T04:25:05;41.42;;;18.63;;
33138;SDS011;19501;50.948;5.316;2023-04-24T04:27:31;34.08;;;14.60;;
33138;SDS011;19501;50.948;5.316;2023-04-24T04:30:01;36.40;;;14.68;;
33138;SDS011;19501;50.948;5.316;2023-04-24T04:32:30;37.63;;;15.75;;
33138;SDS011;19501;50.948;5.316;2023-04-24T04:34:58;34.75;;;14.65;;
33138;SDS011;19501;50.948;5.316;2023-04-24T04:37:27;29.02;;;11.57;;
33138;SDS011;19501;50.948;5.316;2023-04-24T04:39:54;36.03;;;15.85;;
33138;SDS011;19501;50.948;5.316;2023-04-24T04:42:19;37.30;;;17.45;;
33138;SDS011;19501;50.948;5.316;2023-04-24T04:44:45;34.58;;;14.85;;
33138;SDS011;19501;50.948;5.316;2023-04-24T04:47:11;37.15;;;15.75;;
33138;SDS011;19501;50.948;5.316;2023-04-24T04:49:40;37.05;;;15.18;;
33138;SDS011;19501;50.948;5.316;2023-04-24T04:52:08;32.80;;;14.65;;
33138;SDS011;19501;50.948;5.316;2023-04-24T04:54:34;35.83;;;15.88;;
33138;SDS011;19501;50.948;5.316;2023-04-24T04:57:00;28.88;;;11.00;;
33138;SDS011;19501;50.948;5.316;2023-04-24T04:59:26;30.92;;;11.38;;
33138;SDS011;19501;50.948;5.316;2023-04-24T05:01:52;33.90;;;14.73;;
33138;SDS011;19501;50.948;5.316;2023-04-24T05:04:18;33.78;;;14.18;;
33138;SDS011;19501;50.948;5.316;2023-04-24T05:06:43;31.10;;;14.18;;
33138;SDS011;19501;50.948;5.316;2023-04-24T05:09:09;32.33;;;14.02;;
33138;SDS011;19501;50.948;5.316;2023-04-24T05:11:35;32.47;;;13.40;;
33138;SDS011;19501;50.948;5.316;2023-04-24T05:14:01;30.83;;;13.38;;
33138;SDS011;19501;50.948;5.316;2023-04-24T05:16:29;31.67;;;13.45;;
33138;SDS011;19501;50.948;5.316;2023-04-24T05:18:55;30.02;;;12.68;;
33138;SDS011;19501;50.948;5.316;2023-04-24T05:21:21;32.22;;;13.52;;
33138;SDS011;19501;50.948;5.316;2023-04-24T05:23:47;29.17;;;11.95;;
33138;SDS011;19501;50.948;5.316;2023-04-24T05:26:13;32.45;;;13.80;;
33138;SDS011;19501;50.948;5.316;2023-04-24T05:28:39;30.48;;;13.50;;
33138;SDS011;19501;50.948;5.316;2023-04-24T05:31:05;30.92;;;14.27;;
33138;SDS011;19501;50.948;5.316;2023-04-24T05:33:31;27.75;;;12.05;;
33138;SDS011;19501;50.948;5.316;2023-04-24T05:35:57;30.27;;;13.10;;
33138;SDS011;19501;50.948;5.316;2023-04-24T05:38:25;28.55;;;11.40;;
33138;SDS011;19501;50.948;5.316;2023-04-24T05:40:51;26.27;;;10.50;;
33138;SDS011;19501;50.948;5.316;2023-04-24T05:43:16;22.27;;;8.65;;
33138;SDS011;19501;50.948;5.316;2023-04-24T05:45:42;23.73;;;10.00;;
33138;SDS011;19501;50.948;5.316;2023-04-24T05:48:07;22.58;;;9.70;;
33138;SDS011;19501;50.948;5.316;2023-04-24T05:50:33;21.67;;;8.75;;
33138;SDS011;19501;50.948;5.316;2023-04-24T05:52:59;23.70;;;9.38;;
33138;SDS011;19501;50.948;5.316;2023-04-24T05:55:26;24.02;;;9.52;;
33138;SDS011;19501;50.948;5.316;2023-04-24T05:57:53;23.88;;;9.73;;
33138;SDS011;19501;50.948;5.316;2023-04-24T06:00:18;26.55;;;10.57;;
33138;SDS011;19501;50.948;5.316;2023-04-24T06:02:45;31.00;;;12.52;;
33138;SDS011;19501;50.948;5.316;2023-04-24T06:05:11;29.70;;;13.63;;
33138;SDS011;19501;50.948;5.316;2023-04-24T06:07:37;30.40;;;13.90;;
33138;SDS011;19501;50.948;5.316;2023-04-24T06:10:02;29.10;;;13.02;;
33138;SDS011;19501;50.948;5.316;2023-04-24T06:12:28;32.85;;;13.43;;
33138;SDS011;19501;50.948;5.316;2023-04-24T06:14:54;35.22;;;15.15;;
33138;SDS011;19501;50.948;5.316;2023-04-24T06:17:20;33.70;;;14.13;;
33138;SDS011;19501;50.948;5.316;2023-04-24T06:19:46;36.45;;;14.30;;
33138;SDS011;19501;50.948;5.316;2023-04-24T06:22:12;35.05;;;14.32;;
33138;SDS011;19501;50.948;5.316;2023-04-24T06:24:39;36.95;;;16.35;;
33138;SDS011;19501;50.948;5.316;2023-04-24T06:27:05;32.25;;;14.48;;
33138;SDS011;19501;50.948;5.316;2023-04-24T06:29:32;39.75;;;15.57;;
33138;SDS011;19501;50.948;5.316;2023-04-24T06:31:58;36.42;;;14.45;;
33138;SDS011;19501;50.948;5.316;2023-04-24T06:34:24;32.08;;;14.13;;
33138;SDS011;19501;50.948;5.316;2023-04-24T06:36:50;32.45;;;14.68;;
33138;SDS011;19501;50.948;5.316;2023-04-24T06:39:16;27.45;;;10.68;;
33138;SDS011;19501;50.948;5.316;2023-04-24T06:41:42;27.50;;;13.18;;
33138;SDS011;19501;50.948;5.316;2023-04-24T06:44:07;31.17;;;13.38;;
33138;SDS011;19501;50.948;5.316;2023-04-24T06:46:33;30.75;;;13.32;;
33138;SDS011;19501;50.948;5.316;2023-04-24T06:48:59;28.45;;;12.75;;
33138;SDS011;19501;50.948;5.316;2023-04-24T06:51:25;32.85;;;14.38;;
33138;SDS011;19501;50.948;5.316;2023-04-24T06:53:53;30.05;;;12.38;;
33138;SDS011;19501;50.948;5.316;2023-04-24T06:56:20;34.35;;;14.25;;
33138;SDS011;19501;50.948;5.316;2023-04-24T06:58:47;39.95;;;15.15;;
33138;SDS011;19501;50.948;5.316;2023-04-24T07:01:13;32.25;;;13.68;;
33138;SDS011;19501;50.948;5.316;2023-04-24T07:03:38;37.70;;;15.35;;
33138;SDS011;19501;50.948;5.316;2023-04-24T07:06:05;39.00;;;15.32;;
33138;SDS011;19501;50.948;5.316;2023-04-24T07:08:33;36.60;;;14.90;;
33138;SDS011;19501;50.948;5.316;2023-04-24T07:10:59;38.42;;;16.83;;
33138;SDS011;19501;50.948;5.316;2023-04-24T07:13:25;39.05;;;16.23;;
33138;SDS011;19501;50.948;5.316;2023-04-24T07:15:51;37.25;;;17.02;;
33138;SDS011;19501;50.948;5.316;2023-04-24T07:18:20;39.28;;;16.80;;
33138;SDS011;19501;50.948;5.316;2023-04-24T07:20:46;44.08;;;17.77;;
33138;SDS011;19501;50.948;5.316;2023-04-24T07:23:12;42.85;;;18.30;;
33138;SDS011;19501;50.948;5.316;2023-04-24T07:25:38;48.20;;;19.02;;
33138;SDS011;19501;50.948;5.316;2023-04-24T07:28:04;43.05;;;18.67;;
33138;SDS011;19501;50.948;5.316;2023-04-24T07:30:30;43.53;;;17.80;;
33138;SDS011;19501;50.948;5.316;2023-04-24T07:32:57;44.58;;;17.60;;
33138;SDS011;19501;50.948;5.316;2023-04-24T07:35:24;40.05;;;17.30;;
33138;SDS011;19501;50.948;5.316;2023-04-24T07:37:53;40.22;;;18.70;;
33138;SDS011;19501;50.948;5.316;2023-04-24T07:40:19;40.65;;;19.02;;
33138;SDS011;19501;50.948;5.316;2023-04-24T07:42:45;45.15;;;18.98;;
33138;SDS011;19501;50.948;5.316;2023-04-24T07:45:13;42.33;;;18.60;;
33138;SDS011;19501;50.948;5.316;2023-04-24T07:47:39;45.78;;;18.67;;
33138;SDS011;19501;50.948;5.316;2023-04-24T07:50:08;40.05;;;17.98;;
33138;SDS011;19501;50.948;5.316;2023-04-24T07:52:35;43.90;;;18.38;;
33138;SDS011;19501;50.948;5.316;2023-04-24T07:55:00;35.85;;;16.52;;
33138;SDS011;19501;50.948;5.316;2023-04-24T07:57:27;43.50;;;17.52;;
33138;SDS011;19501;50.948;5.316;2023-04-24T07:59:53;44.42;;;17.05;;
33138;SDS011;19501;50.948;5.316;2023-04-24T08:02:19;46.85;;;20.80;;
33138;SDS011;19501;50.948;5.316;2023-04-24T08:04:46;48.22;;;21.52;;
33138;SDS011;19501;50.948;5.316;2023-04-24T08:07:12;46.22;;;20.08;;
33138;SDS011;19501;50.948;5.316;2023-04-24T08:09:38;51.95;;;22.48;;
33138;SDS011;19501;50.948;5.316;2023-04-24T08:12:03;44.53;;;19.63;;
33138;SDS011;19501;50.948;5.316;2023-04-24T08:14:29;42.00;;;19.38;;
33138;SDS011;19501;50.948;5.316;2023-04-24T08:16:55;50.13;;;19.20;;
33138;SDS011;19501;50.948;5.316;2023-04-24T08:19:21;39.83;;;18.08;;
33138;SDS011;19501;50.948;5.316;2023-04-24T08:21:53;43.58;;;18.25;;
33138;SDS011;19501;50.948;5.316;2023-04-24T08:24:18;37.33;;;16.55;;
33138;SDS011;19501;50.948;5.316;2023-04-24T08:26:44;46.75;;;19.08;;
33138;SDS011;19501;50.948;5.316;2023-04-24T08:29:10;40.15;;;17.08;;
33138;SDS011;19501;50.948;5.316;2023-04-24T08:31:35;39.35;;;18.23;;
33138;SDS011;19501;50.948;5.316;2023-04-24T08:34:01;41.53;;;17.77;;
33138;SDS011;19501;50.948;5.316;2023-04-24T08:36:27;44.33;;;17.63;;
33138;SDS011;19501;50.948;5.316;2023-04-24T08:38:52;39.53;;;15.50;;
33138;SDS011;19501;50.948;5.316;2023-04-24T08:41:18;37.22;;;16.05;;
33138;SDS011;19501;50.948;5.316;2023-04-24T08:43:47;36.10;;;16.48;;
33138;SDS011;19501;50.948;5.316;2023-04-24T08:46:14;37.50;;;15.63;;
33138;SDS011;19501;50.948;5.316;2023-04-24T08:48:41;29.30;;;13.25;;
33138;SDS011;19501;50.948;5.316;2023-04-24T08:51:07;34.88;;;13.68;;
33138;SDS011;19501;50.948;5.316;2023-04-24T08:53:34;31.25;;;13.02;;
33138;SDS011;19501;50.948;5.316;2023-04-24T08:56:01;32.00;;;12.68;;
33138;SDS011;19501;50.948;5.316;2023-04-24T08:58:31;38.95;;;12.32;;
33138;SDS011;19501;50.948;5.316;2023-04-24T09:00:57;27.73;;;11.30;;
33138;SDS011;19501;50.948;5.316;2023-04-24T09:03:27;30.70;;;11.82;;
33138;SDS011;19501;50.948;5.316;2023-04-24T09:05:53;31.92;;;10.77;;
33138;SDS011;19501;50.948;5.316;2023-04-24T09:08:23;28.42;;;10.93;;
33138;SDS011;19501;50.948;5.316;2023-04-24T09:10:50;30.05;;;11.45;;
33138;SDS011;19501;50.948;5.316;2023-04-24T09:13:16;28.17;;;9.70;;
33138;SDS011;19501;50.948;5.316;2023-04-24T09:15:43;32.67;;;10.35;;
33138;SDS011;19501;50.948;5.316;2023-04-24T09:18:09;30.33;;;10.27;;
33138;SDS011;19501;50.948;5.316;2023-04-24T09:20:35;26.73;;;9.60;;
33138;SDS011;19501;50.948;5.316;2023-04-24T09:23:26;28.75;;;9.80;;
33138;SDS011;19501;50.948;5.316;2023-04-24T09:25:56;23.63;;;9.10;;
33138;SDS011;19501;50.948;5.316;2023-04-24T09:28:29;24.73;;;8.85;;
33138;SDS011;19501;50.948;5.316;2023-04-24T09:31:12;28.20;;;9.55;;
33138;SDS011;19501;50.948;5.316;2023-04-24T09:39:05;29.65;;;12.65;;
33138;SDS011;19501;50.948;5.316;2023-04-24T09:41:45;34.33;;;13.05;;
33138;SDS011;19501;50.948;5.316;2023-04-24T09:44:14;29.15;;;11.02;;
33138;SDS011;19501;50.948;5.316;2023-04-24T09:46:41;28.60;;;11.73;;
33138;SDS011;19501;50.948;5.316;2023-04-24T09:49:09;30.95;;;12.32;;
33138;SDS011;19501;50.948;5.316;2023-04-24T09:51:36;28.08;;;12.60;;
33138;SDS011;19501;50.948;5.316;2023-04-24T09:54:11;32.67;;;12.32;;
33138;SDS011;19501;50.948;5.316;2023-04-24T09:56:42;24.02;;;9.00;;
33138;SDS011;19501;50.948;5.316;2023-04-24T09:59:15;35.40;;;12.63;;
33138;SDS011;19501;50.948;5.316;2023-04-24T10:01:41;34.75;;;12.48;;
33138;SDS011;19501;50.948;5.316;2023-04-24T10:06:45;25.92;;;11.35;;
33138;SDS011;19501;50.948;5.316;2023-04-24T10:09:16;30.58;;;12.30;;
33138;SDS011;19501;50.948;5.316;2023-04-24T10:11:47;27.95;;;11.90;;
33138;SDS011;19501;50.948;5.316;2023-04-24T10:14:18;32.45;;;11.00;;
33138;SDS011;19501;50.948;5.316;2023-04-24T10:16:48;26.08;;;10.68;;
33138;SDS011;19501;50.948;5.316;2023-04-24T10:19:15;27.38;;;10.50;;
33138;SDS011;19501;50.948;5.316;2023-04-24T10:21:43;23.05;;;9.27;;
33138;SDS011;19501;50.948;5.316;2023-04-24T10:24:16;25.92;;;11.63;;
33138;SDS011;19501;50.948;5.316;2023-04-24T10:26:43;27.13;;;10.60;;
33138;SDS011;19501;50.948;5.316;2023-04-24T10:29:11;27.38;;;10.45;;
33138;SDS011;19501;50.948;5.316;2023-04-24T10:31:38;30.45;;;10.90;;
33138;SDS011;19501;50.948;5.316;2023-04-24T10:34:08;30.70;;;10.27;;
33138;SDS011;19501;50.948;5.316;2023-04-24T10:36:34;29.52;;;12.02;;
33138;SDS011;19501;50.948;5.316;2023-04-24T10:39:05;28.33;;;12.50;;
33138;SDS011;19501;50.948;5.316;2023-04-24T10:41:36;32.05;;;13.25;;
33138;SDS011;19501;50.948;5.316;2023-04-24T10:44:10;27.73;;;12.00;;
33138;SDS011;19501;50.948;5.316;2023-04-24T10:46:38;24.67;;;9.75;;
33138;SDS011;19501;50.948;5.316;2023-04-24T10:49:09;26.83;;;11.48;;
33138;SDS011;19501;50.948;5.316;2023-04-24T10:51:45;28.40;;;11.23;;
33138;SDS011;19501;50.948;5.316;2023-04-24T10:54:28;31.35;;;12.20;;
33138;SDS011;19501;50.948;5.316;2023-04-24T10:59:43;28.80;;;12.43;;
33138;SDS011;19501;50.948;5.316;2023-04-24T11:02:09;36.58;;;12.85;;
33138;SDS011;19501;50.948;5.316;2023-04-24T11:04:35;26.85;;;12.48;;
33138;SDS011;19501;50.948;5.316;2023-04-24T11:07:02;27.92;;;11.93;;
33138;SDS011;19501;50.948;5.316;2023-04-24T11:09:30;30.58;;;12.90;;
33138;SDS011;19501;50.948;5.316;2023-04-24T11:12:06;34.40;;;11.00;;
33138;SDS011;19501;50.948;5.316;2023-04-24T11:17:31;28.13;;;10.13;;
33138;SDS011;19501;50.948;5.316;2023-04-24T11:20:04;27.60;;;11.80;;
33138;SDS011;19501;50.948;5.316;2023-04-24T11:22:35;28.60;;;10.52;;
33138;SDS011;19501;50.948;5.316;2023-04-24T11:25:02;28.00;;;10.13;;
33138;SDS011;19501;50.948;5.316;2023-04-24T11:27:30;25.33;;;11.07;;
33138;SDS011;19501;50.948;5.316;2023-04-24T11:30:00;30.60;;;10.02;;
33138;SDS011;19501;50.948;5.316;2023-04-24T11:35:04;24.73;;;10.27;;
33138;SDS011;19501;50.948;5.316;2023-04-24T11:37:41;28.95;;;11.65;;
33138;SDS011;19501;50.948;5.316;2023-04-24T11:40:11;26.88;;;10.25;;
33138;SDS011;19501;50.948;5.316;2023-04-24T11:42:39;22.42;;;9.20;;
33138;SDS011;19501;50.948;5.316;2023-04-24T11:45:09;29.65;;;10.23;;
33138;SDS011;19501;50.948;5.316;2023-04-24T11:47:42;24.30;;;9.80;;
33138;SDS011;19501;50.948;5.316;2023-04-24T11:50:12;21.95;;;8.57;;
33138;SDS011;19501;50.948;5.316;2023-04-24T11:52:43;21.05;;;8.25;;
33138;SDS011;19501;50.948;5.316;2023-04-24T11:57:39;23.95;;;8.23;;
33138;SDS011;19501;50.948;5.316;2023-04-24T12:00:32;23.92;;;9.50;;
33138;SDS011;19501;50.948;5.316;2023-04-24T12:05:35;22.83;;;8.95;;
33138;SDS011;19501;50.948;5.316;2023-04-24T12:08:01;18.85;;;8.15;;
33138;SDS011;19501;50.948;5.316;2023-04-24T12:10:28;21.70;;;8.18;;
33138;SDS011;19501;50.948;5.316;2023-04-24T12:12:55;22.83;;;8.15;;
33138;SDS011;19501;50.948;5.316;2023-04-24T12:15:22;22.15;;;7.93;;
33138;SDS011;19501;50.948;5.316;2023-04-24T12:17:50;18.90;;;6.82;;
33138;SDS011;19501;50.948;5.316;2023-04-24T12:20:17;18.02;;;6.97;;
33138;SDS011;19501;50.948;5.316;2023-04-24T12:22:58;22.17;;;7.97;;
33138;SDS011;19501;50.948;5.316;2023-04-24T12:25:28;18.98;;;7.30;;
33138;SDS011;19501;50.948;5.316;2023-04-24T12:30:30;22.73;;;6.75;;
33138;SDS011;19501;50.948;5.316;2023-04-24T12:32:57;20.77;;;6.65;;
33138;SDS011;19501;50.948;5.316;2023-04-24T12:35:25;21.92;;;7.45;;
33138;SDS011;19501;50.948;5.316;2023-04-24T12:37:52;15.70;;;6.40;;
33138;SDS011;19501;50.948;5.316;2023-04-24T12:40:18;22.38;;;8.00;;
33138;SDS011;19501;50.948;5.316;2023-04-24T12:42:46;19.60;;;6.95;;
33138;SDS011;19501;50.948;5.316;2023-04-24T12:45:13;18.83;;;6.68;;
33138;SDS011;19501;50.948;5.316;2023-04-24T12:47:40;16.42;;;6.28;;
33138;SDS011;19501;50.948;5.316;2023-04-24T12:50:07;24.23;;;8.15;;
33138;SDS011;19501;50.948;5.316;2023-04-24T12:52:37;17.38;;;7.35;;
33138;SDS011;19501;50.948;5.316;2023-04-24T12:55:06;18.52;;;7.10;;
33138;SDS011;19501;50.948;5.316;2023-04-24T12:57:35;20.95;;;7.35;;
33138;SDS011;19501;50.948;5.316;2023-04-24T13:00:03;17.95;;;6.60;;
33138;SDS011;19501;50.948;5.316;2023-04-24T13:02:30;18.48;;;6.20;;
33138;SDS011;19501;50.948;5.316;2023-04-24T13:04:56;15.82;;;6.35;;
33138;SDS011;19501;50.948;5.316;2023-04-24T13:07:23;19.45;;;6.20;;
33138;SDS011;19501;50.948;5.316;2023-04-24T13:09:50;20.00;;;6.93;;
33138;SDS011;19501;50.948;5.316;2023-04-24T13:12:16;13.75;;;5.88;;
33138;SDS011;19501;50.948;5.316;2023-04-24T13:14:42;17.23;;;5.85;;
33138;SDS011;19501;50.948;5.316;2023-04-24T13:17:08;22.77;;;7.18;;
33138;SDS011;19501;50.948;5.316;2023-04-24T13:19:38;17.55;;;6.20;;
33138;SDS011;19501;50.948;5.316;2023-04-24T13:22:05;18.60;;;6.30;;
33138;SDS011;19501;50.948;5.316;2023-04-24T13:24:32;16.58;;;6.57;;
33138;SDS011;19501;50.948;5.316;2023-04-24T13:26:58;17.63;;;6.38;;
33138;SDS011;19501;50.948;5.316;2023-04-24T13:29:25;19.65;;;7.18;;
33138;SDS011;19501;50.948;5.316;2023-04-24T13:31:51;21.67;;;7.25;;
33138;SDS011;19501;50.948;5.316;2023-04-24T13:34:19;20.00;;;7.22;;
33138;SDS011;19501;50.948;5.316;2023-04-24T13:36:44;21.33;;;7.28;;
33138;SDS011;19501;50.948;5.316;2023-04-24T13:39:11;16.73;;;6.75;;
33138;SDS011;19501;50.948;5.316;2023-04-24T13:41:36;15.50;;;6.50;;
33138;SDS011;19501;50.948;5.316;2023-04-24T13:44:03;16.88;;;6.88;;
33138;SDS011;19501;50.948;5.316;2023-04-24T13:46:32;19.23;;;7.15;;
33138;SDS011;19501;50.948;5.316;2023-04-24T13:48:58;19.40;;;6.90;;
33138;SDS011;19501;50.948;5.316;2023-04-24T13:51:25;17.63;;;7.05;;
33138;SDS011;19501;50.948;5.316;2023-04-24T13:53:54;16.75;;;6.43;;
33138;SDS011;19501;50.948;5.316;2023-04-24T13:56:20;17.67;;;7.05;;
33138;SDS011;19501;50.948;5.316;2023-04-24T13:58:47;17.98;;;6.25;;
33138;SDS011;19501;50.948;5.316;2023-04-24T14:01:13;16.85;;;6.63;;
33138;SDS011;19501;50.948;5.316;2023-04-24T14:03:41;14.55;;;5.80;;
33138;SDS011;19501;50.948;5.316;2023-04-24T14:06:08;19.77;;;6.35;;
33138;SDS011;19501;50.948;5.316;2023-04-24T14:08:34;16.63;;;6.18;;
33138;SDS011;19501;50.948;5.316;2023-04-24T14:11:00;13.93;;;5.20;;
33138;SDS011;19501;50.948;5.316;2023-04-24T14:13:25;20.05;;;6.85;;
33138;SDS011;19501;50.948;5.316;2023-04-24T14:15:52;20.05;;;6.82;;
33138;SDS011;19501;50.948;5.316;2023-04-24T14:18:18;15.85;;;6.85;;
33138;SDS011;19501;50.948;5.316;2023-04-24T14:20:44;16.45;;;6.40;;
33138;SDS011;19501;50.948;5.316;2023-04-24T14:23:10;15.68;;;6.55;;
33138;SDS011;19501;50.948;5.316;2023-04-24T14:25:35;16.50;;;7.35;;
33138;SDS011;19501;50.948;5.316;2023-04-24T14:28:01;15.68;;;6.57;;
33138;SDS011;19501;50.948;5.316;2023-04-24T14:30:29;18.80;;;6.68;;
33138;SDS011;19501;50.948;5.316;2023-04-24T14:32:55;15.80;;;6.10;;
33138;SDS011;19501;50.948;5.316;2023-04-24T14:35:21;17.52;;;7.15;;
33138;SDS011;19501;50.948;5.316;2023-04-24T14:37:47;17.08;;;6.57;;
33138;SDS011;19501;50.948;5.316;2023-04-24T14:40:13;15.27;;;6.43;;
33138;SDS011;19501;50.948;5.316;2023-04-24T14:42:41;19.33;;;6.68;;
33138;SDS011;19501;50.948;5.316;2023-04-24T14:45:07;16.23;;;6.05;;
33138;SDS011;19501;50.948;5.316;2023-04-24T14:47:33;20.08;;;6.18;;
33138;SDS011;19501;50.948;5.316;2023-04-24T14:49:58;13.45;;;6.10;;
33138;SDS011;19501;50.948;5.316;2023-04-24T14:52:24;18.33;;;7.32;;